Main page
METAR-TAF:

METAR-TAF

Airports :

Vienna, Austria

Vienna International Airport

latitude: 48-07N, longitude: 016-34E, elevation: 183 m

Current weather observation

The report was made 44 minutes ago, at 19:50 UTC
Wind 6 kt from the North
Temperature 24°C
Humidity 61%
Pressure 1014 hPa
Visibility 10 km or more
no clouds below 1500 m and no cumulonimbus

METAR: LOWW 231950Z 01006KT CAVOK 24/16 Q1014 NOSIG

Time: 22:34 (20:34 UTC)

Forecast

The report was made 3 hours and 19 minutes ago, at 17:15 UTC
Forecast valid from 23 at 18 UTC to 24 at 24 UTC
Wind 5 kt from the West/Northwest
Visibility 10 km or more
no clouds below 1500 m and no cumulonimbus
Becoming
from 24 at 06 UTC to 24 at 08 UTC
Wind 14 kt from the West/Northwest
Becoming
from 24 at 18 UTC to 24 at 20 UTC
Wind 4 kt from the West

TAF: LOWW 231715Z 2318/2424 30005KT CAVOK TX32/2415Z TN18/2403Z BECMG 2406/2408 30014KT BECMG 2418/2420 28004KT

Weather observations and forecasts of more than 4000 airports (METAR and TAF reports).

The available stations are represented by yellow and red dots on the map.

Hover mouse over dot to see the name of the station.

Then click to see weather observations and forecasts.

To change the map : click on the green buttons with a black cross to zoom in, on the green button with a dash to zoom out, or on the green arrows for adjacent maps.


METAR-TAF: